sensor_id;sensor_type;location;lat;lon;timestamp;pressure;altitude;pressure_sealevel;temperature
68127;BMP180;54931;52.098;21.006;2023-05-29T00:01:28;100566.80;;;7.80
68127;BMP180;54931;52.098;21.006;2023-05-29T00:03:56;100560.20;;;7.70
68127;BMP180;54931;52.098;21.006;2023-05-29T00:06:24;100561.00;;;7.70
68127;BMP180;54931;52.098;21.006;2023-05-29T00:08:51;100560.80;;;7.70
68127;BMP180;54931;52.098;21.006;2023-05-29T00:11:19;100555.20;;;7.60
68127;BMP180;54931;52.098;21.006;2023-05-29T00:13:47;100555.00;;;7.60
68127;BMP180;54931;52.098;21.006;2023-05-29T00:16:15;100556.20;;;7.60
68127;BMP180;54931;52.098;21.006;2023-05-29T00:18:45;100557.80;;;7.52
68127;BMP180;54931;52.098;21.006;2023-05-29T00:21:13;100558.80;;;7.50
68127;BMP180;54931;52.098;21.006;2023-05-29T00:23:41;100556.60;;;7.50
68127;BMP180;54931;52.098;21.006;2023-05-29T00:26:09;100556.80;;;7.50
68127;BMP180;54931;52.098;21.006;2023-05-29T00:28:37;100552.20;;;7.50
68127;BMP180;54931;52.098;21.006;2023-05-29T00:31:05;100556.00;;;7.50
68127;BMP180;54931;52.098;21.006;2023-05-29T00:33:32;100561.00;;;7.46
68127;BMP180;54931;52.098;21.006;2023-05-29T00:35:59;100560.00;;;7.42
68127;BMP180;54931;52.098;21.006;2023-05-29T00:38:27;100557.00;;;7.40
68127;BMP180;54931;52.098;21.006;2023-05-29T00:40:54;100561.80;;;7.40
68127;BMP180;54931;52.098;21.006;2023-05-29T00:43:22;100560.20;;;7.40
68127;BMP180;54931;52.098;21.006;2023-05-29T00:45:50;100564.20;;;7.40
68127;BMP180;54931;52.098;21.006;2023-05-29T00:48:17;100553.60;;;7.40
68127;BMP180;54931;52.098;21.006;2023-05-29T00:50:44;100553.20;;;7.40
68127;BMP180;54931;52.098;21.006;2023-05-29T00:53:13;100557.40;;;7.40
68127;BMP180;54931;52.098;21.006;2023-05-29T00:55:41;100554.20;;;7.40
68127;BMP180;54931;52.098;21.006;2023-05-29T00:58:08;100549.80;;;7.34
68127;BMP180;54931;52.098;21.006;2023-05-29T01:00:35;100552.40;;;7.32
68127;BMP180;54931;52.098;21.006;2023-05-29T01:03:06;100555.60;;;7.30
68127;BMP180;54931;52.098;21.006;2023-05-29T01:05:35;100556.20;;;7.30
68127;BMP180;54931;52.098;21.006;2023-05-29T01:08:05;100557.00;;;7.30
68127;BMP180;54931;52.098;21.006;2023-05-29T01:10:34;100550.80;;;7.30
68127;BMP180;54931;52.098;21.006;2023-05-29T01:13:22;100550.80;;;7.20
68127;BMP180;54931;52.098;21.006;2023-05-29T01:16:16;100551.00;;;7.20
68127;BMP180;54931;52.098;21.006;2023-05-29T01:18:58;100551.80;;;7.20
68127;BMP180;54931;52.098;21.006;2023-05-29T01:27:10;100545.80;;;7.10
68127;BMP180;54931;52.098;21.006;2023-05-29T01:29:39;100549.20;;;7.10
68127;BMP180;54931;52.098;21.006;2023-05-29T01:32:10;100549.20;;;7.00
68127;BMP180;54931;52.098;21.006;2023-05-29T01:34:38;100548.80;;;7.00
68127;BMP180;54931;52.098;21.006;2023-05-29T01:37:05;100544.60;;;7.00
68127;BMP180;54931;52.098;21.006;2023-05-29T01:39:33;100547.80;;;6.96
68127;BMP180;54931;52.098;21.006;2023-05-29T01:42:01;100551.00;;;6.90
68127;BMP180;54931;52.098;21.006;2023-05-29T01:44:30;100554.20;;;6.90
68127;BMP180;54931;52.098;21.006;2023-05-29T01:46:58;100545.60;;;6.90
68127;BMP180;54931;52.098;21.006;2023-05-29T01:49:26;100547.20;;;6.82
68127;BMP180;54931;52.098;21.006;2023-05-29T01:51:53;100548.40;;;6.80
68127;BMP180;54931;52.098;21.006;2023-05-29T01:54:21;100547.20;;;6.80
68127;BMP180;54931;52.098;21.006;2023-05-29T01:56:49;100548.80;;;6.78
68127;BMP180;54931;52.098;21.006;2023-05-29T01:59:17;100546.20;;;6.70
68127;BMP180;54931;52.098;21.006;2023-05-29T02:01:45;100548.00;;;6.70
68127;BMP180;54931;52.098;21.006;2023-05-29T02:04:12;100552.00;;;6.70
68127;BMP180;54931;52.098;21.006;2023-05-29T02:06:39;100540.20;;;6.60
68127;BMP180;54931;52.098;21.006;2023-05-29T02:09:07;100536.40;;;6.60
68127;BMP180;54931;52.098;21.006;2023-05-29T02:11:35;100530.20;;;6.60
68127;BMP180;54931;52.098;21.006;2023-05-29T02:14:02;100534.40;;;6.52
68127;BMP180;54931;52.098;21.006;2023-05-29T02:16:30;100534.40;;;6.50
68127;BMP180;54931;52.098;21.006;2023-05-29T02:19:01;100533.00;;;6.50
68127;BMP180;54931;52.098;21.006;2023-05-29T02:21:29;100532.00;;;6.50
68127;BMP180;54931;52.098;21.006;2023-05-29T02:23:57;100527.00;;;6.50
68127;BMP180;54931;52.098;21.006;2023-05-29T02:26:24;100526.80;;;6.46
68127;BMP180;54931;52.098;21.006;2023-05-29T02:28:52;100527.80;;;6.40
68127;BMP180;54931;52.098;21.006;2023-05-29T02:31:20;100522.60;;;6.40
68127;BMP180;54931;52.098;21.006;2023-05-29T02:33:48;100519.60;;;6.40
68127;BMP180;54931;52.098;21.006;2023-05-29T02:36:15;100513.80;;;6.40
68127;BMP180;54931;52.098;21.006;2023-05-29T02:38:43;100509.80;;;6.40
68127;BMP180;54931;52.098;21.006;2023-05-29T02:41:10;100510.00;;;6.40
68127;BMP180;54931;52.098;21.006;2023-05-29T02:43:38;100509.40;;;6.40
68127;BMP180;54931;52.098;21.006;2023-05-29T02:46:05;100507.60;;;6.40
68127;BMP180;54931;52.098;21.006;2023-05-29T02:48:32;100509.20;;;6.40
68127;BMP180;54931;52.098;21.006;2023-05-29T02:51:00;100513.40;;;6.40
68127;BMP180;54931;52.098;21.006;2023-05-29T02:53:27;100509.20;;;6.46
68127;BMP180;54931;52.098;21.006;2023-05-29T02:55:55;100511.80;;;6.50
68127;BMP180;54931;52.098;21.006;2023-05-29T02:58:22;100509.40;;;6.50
68127;BMP180;54931;52.098;21.006;2023-05-29T03:00:50;100509.40;;;6.50
68127;BMP180;54931;52.098;21.006;2023-05-29T03:03:17;100509.20;;;6.50
68127;BMP180;54931;52.098;21.006;2023-05-29T03:05:46;100513.20;;;6.60
68127;BMP180;54931;52.098;21.006;2023-05-29T03:08:14;100510.00;;;6.60
68127;BMP180;54931;52.098;21.006;2023-05-29T03:10:41;100512.00;;;6.60
68127;BMP180;54931;52.098;21.006;2023-05-29T03:13:09;100515.80;;;6.70
68127;BMP180;54931;52.098;21.006;2023-05-29T03:15:37;100518.80;;;6.70
68127;BMP180;54931;52.098;21.006;2023-05-29T03:18:04;100516.60;;;6.80
68127;BMP180;54931;52.098;21.006;2023-05-29T03:20:32;100519.80;;;6.90
68127;BMP180;54931;52.098;21.006;2023-05-29T03:22:59;100520.40;;;6.98
68127;BMP180;54931;52.098;21.006;2023-05-29T03:25:27;100521.40;;;7.00
68127;BMP180;54931;52.098;21.006;2023-05-29T03:27:55;100520.40;;;7.10
68127;BMP180;54931;52.098;21.006;2023-05-29T03:30:22;100522.20;;;7.20
68127;BMP180;54931;52.098;21.006;2023-05-29T03:32:50;100520.40;;;7.28
68127;BMP180;54931;52.098;21.006;2023-05-29T03:35:18;100522.40;;;7.40
68127;BMP180;54931;52.098;21.006;2023-05-29T03:37:45;100525.00;;;7.50
68127;BMP180;54931;52.098;21.006;2023-05-29T03:40:14;100527.80;;;7.70
68127;BMP180;54931;52.098;21.006;2023-05-29T03:42:41;100533.80;;;7.90
68127;BMP180;54931;52.098;21.006;2023-05-29T03:45:10;100532.60;;;8.10
68127;BMP180;54931;52.098;21.006;2023-05-29T03:47:40;100531.00;;;8.34
68127;BMP180;54931;52.098;21.006;2023-05-29T03:50:09;100532.40;;;8.60
68127;BMP180;54931;52.098;21.006;2023-05-29T03:52:37;100531.00;;;8.82
68127;BMP180;54931;52.098;21.006;2023-05-29T03:55:08;100532.00;;;9.10
68127;BMP180;54931;52.098;21.006;2023-05-29T03:57:40;100539.60;;;9.40
68127;BMP180;54931;52.098;21.006;2023-05-29T04:00:12;100545.80;;;9.74
68127;BMP180;54931;52.098;21.006;2023-05-29T04:02:40;100550.20;;;10.10
68127;BMP180;54931;52.098;21.006;2023-05-29T04:05:08;100553.20;;;10.44
68127;BMP180;54931;52.098;21.006;2023-05-29T04:07:40;100552.80;;;10.86
68127;BMP180;54931;52.098;21.006;2023-05-29T04:10:08;100557.40;;;11.30
68127;BMP180;54931;52.098;21.006;2023-05-29T04:12:36;100560.80;;;11.74
68127;BMP180;54931;52.098;21.006;2023-05-29T04:15:05;100556.80;;;12.20
68127;BMP180;54931;52.098;21.006;2023-05-29T04:17:32;100560.00;;;12.66
68127;BMP180;54931;52.098;21.006;2023-05-29T04:20:00;100564.80;;;13.04
68127;BMP180;54931;52.098;21.006;2023-05-29T04:22:36;100559.00;;;13.40
68127;BMP180;54931;52.098;21.006;2023-05-29T04:25:04;100565.00;;;13.78
68127;BMP180;54931;52.098;21.006;2023-05-29T04:27:32;100564.20;;;14.14
68127;BMP180;54931;52.098;21.006;2023-05-29T04:29:59;100569.80;;;14.50
68127;BMP180;54931;52.098;21.006;2023-05-29T04:32:27;100564.40;;;14.82
68127;BMP180;54931;52.098;21.006;2023-05-29T04:34:54;100570.20;;;15.10
68127;BMP180;54931;52.098;21.006;2023-05-29T04:37:22;100568.40;;;15.40
68127;BMP180;54931;52.098;21.006;2023-05-29T04:39:56;100571.60;;;15.60
68127;BMP180;54931;52.098;21.006;2023-05-29T04:42:26;100571.40;;;15.90
68127;BMP180;54931;52.098;21.006;2023-05-29T04:44:54;100572.00;;;16.16
68127;BMP180;54931;52.098;21.006;2023-05-29T04:47:21;100574.60;;;16.48
68127;BMP180;54931;52.098;21.006;2023-05-29T04:49:49;100574.40;;;16.70
68127;BMP180;54931;52.098;21.006;2023-05-29T04:52:17;100570.80;;;17.00
68127;BMP180;54931;52.098;21.006;2023-05-29T04:54:45;100576.20;;;17.20
68127;BMP180;54931;52.098;21.006;2023-05-29T04:57:12;100578.80;;;17.26
68127;BMP180;54931;52.098;21.006;2023-05-29T04:59:40;100577.00;;;17.40
68127;BMP180;54931;52.098;21.006;2023-05-29T05:02:07;100577.00;;;17.50
68127;BMP180;54931;52.098;21.006;2023-05-29T05:04:34;100577.00;;;17.70
68127;BMP180;54931;52.098;21.006;2023-05-29T05:07:02;100580.40;;;17.98
68127;BMP180;54931;52.098;21.006;2023-05-29T05:09:30;100578.80;;;18.10
68127;BMP180;54931;52.098;21.006;2023-05-29T05:11:58;100583.40;;;18.38
68127;BMP180;54931;52.098;21.006;2023-05-29T05:14:25;100580.00;;;18.60
68127;BMP180;54931;52.098;21.006;2023-05-29T05:16:53;100579.40;;;18.88
68127;BMP180;54931;52.098;21.006;2023-05-29T05:19:20;100579.80;;;19.20
68127;BMP180;54931;52.098;21.006;2023-05-29T05:21:48;100576.40;;;19.30
68127;BMP180;54931;52.098;21.006;2023-05-29T05:24:16;100578.00;;;19.50
68127;BMP180;54931;52.098;21.006;2023-05-29T05:26:43;100582.40;;;19.80
68127;BMP180;54931;52.098;21.006;2023-05-29T05:29:11;100575.80;;;20.10
68127;BMP180;54931;52.098;21.006;2023-05-29T05:31:38;100580.00;;;20.30
68127;BMP180;54931;52.098;21.006;2023-05-29T05:34:06;100581.40;;;20.50
68127;BMP180;54931;52.098;21.006;2023-05-29T05:36:34;100576.80;;;20.70
68127;BMP180;54931;52.098;21.006;2023-05-29T05:39:01;100580.80;;;20.90
68127;BMP180;54931;52.098;21.006;2023-05-29T05:41:28;100587.80;;;20.90
68127;BMP180;54931;52.098;21.006;2023-05-29T05:43:56;100590.00;;;20.90
68127;BMP180;54931;52.098;21.006;2023-05-29T05:46:23;100588.60;;;21.08
68127;BMP180;54931;52.098;21.006;2023-05-29T05:48:51;100587.80;;;21.20
68127;BMP180;54931;52.098;21.006;2023-05-29T05:51:18;100585.20;;;21.50
68127;BMP180;54931;52.098;21.006;2023-05-29T05:53:47;100588.20;;;21.78
68127;BMP180;54931;52.098;21.006;2023-05-29T05:56:14;100590.00;;;21.70
68127;BMP180;54931;52.098;21.006;2023-05-29T05:58:41;100595.80;;;21.70
68127;BMP180;54931;52.098;21.006;2023-05-29T06:01:09;100591.40;;;21.60
68127;BMP180;54931;52.098;21.006;2023-05-29T06:03:37;100592.00;;;21.62
68127;BMP180;54931;52.098;21.006;2023-05-29T06:06:05;100594.80;;;21.70
68127;BMP180;54931;52.098;21.006;2023-05-29T06:08:34;100588.80;;;21.70
68127;BMP180;54931;52.098;21.006;2023-05-29T06:11:02;100589.20;;;21.80
68127;BMP180;54931;52.098;21.006;2023-05-29T06:13:29;100591.40;;;22.00
68127;BMP180;54931;52.098;21.006;2023-05-29T06:15:56;100595.80;;;22.18
68127;BMP180;54931;52.098;21.006;2023-05-29T06:18:24;100596.80;;;22.40
68127;BMP180;54931;52.098;21.006;2023-05-29T06:20:51;100596.20;;;22.62
68127;BMP180;54931;52.098;21.006;2023-05-29T06:23:19;100597.80;;;22.80
68127;BMP180;54931;52.098;21.006;2023-05-29T06:25:47;100595.60;;;22.60
68127;BMP180;54931;52.098;21.006;2023-05-29T06:28:15;100591.00;;;22.60
68127;BMP180;54931;52.098;21.006;2023-05-29T06:30:42;100593.20;;;22.80
68127;BMP180;54931;52.098;21.006;2023-05-29T06:33:10;100595.60;;;22.90
68127;BMP180;54931;52.098;21.006;2023-05-29T06:35:37;100593.20;;;23.10
68127;BMP180;54931;52.098;21.006;2023-05-29T06:38:05;100588.40;;;23.40
68127;BMP180;54931;52.098;21.006;2023-05-29T06:40:33;100591.40;;;23.70
68127;BMP180;54931;52.098;21.006;2023-05-29T06:43:00;100593.60;;;23.80
68127;BMP180;54931;52.098;21.006;2023-05-29T06:45:28;100595.00;;;23.76
68127;BMP180;54931;52.098;21.006;2023-05-29T06:47:56;100595.60;;;23.70
68127;BMP180;54931;52.098;21.006;2023-05-29T06:50:23;100593.00;;;23.90
68127;BMP180;54931;52.098;21.006;2023-05-29T06:52:51;100592.80;;;23.96
68127;BMP180;54931;52.098;21.006;2023-05-29T06:55:19;100592.20;;;24.00
68127;BMP180;54931;52.098;21.006;2023-05-29T06:57:46;100593.00;;;24.20
68127;BMP180;54931;52.098;21.006;2023-05-29T07:00:15;100593.80;;;24.10
68127;BMP180;54931;52.098;21.006;2023-05-29T07:02:43;100593.80;;;24.10
68127;BMP180;54931;52.098;21.006;2023-05-29T07:05:10;100596.60;;;24.10
68127;BMP180;54931;52.098;21.006;2023-05-29T07:07:37;100599.80;;;24.20
68127;BMP180;54931;52.098;21.006;2023-05-29T07:10:05;100600.60;;;24.40
68127;BMP180;54931;52.098;21.006;2023-05-29T07:12:33;100602.60;;;24.62
68127;BMP180;54931;52.098;21.006;2023-05-29T07:15:00;100596.80;;;24.80
68127;BMP180;54931;52.098;21.006;2023-05-29T07:17:28;100600.80;;;24.60
68127;BMP180;54931;52.098;21.006;2023-05-29T07:19:55;100605.80;;;24.66
68127;BMP180;54931;52.098;21.006;2023-05-29T07:22:23;100605.80;;;24.70
68127;BMP180;54931;52.098;21.006;2023-05-29T07:24:50;100612.00;;;24.60
68127;BMP180;54931;52.098;21.006;2023-05-29T07:27:18;100611.60;;;24.50
68127;BMP180;54931;52.098;21.006;2023-05-29T07:29:45;100608.20;;;24.48
68127;BMP180;54931;52.098;21.006;2023-05-29T07:32:12;100611.20;;;24.30
68127;BMP180;54931;52.098;21.006;2023-05-29T07:34:40;100614.80;;;24.10
68127;BMP180;54931;52.098;21.006;2023-05-29T07:37:07;100609.20;;;24.20
68127;BMP180;54931;52.098;21.006;2023-05-29T07:39:35;100609.80;;;24.00
68127;BMP180;54931;52.098;21.006;2023-05-29T07:42:03;100610.60;;;23.92
68127;BMP180;54931;52.098;21.006;2023-05-29T07:44:30;100613.80;;;24.10
68127;BMP180;54931;52.098;21.006;2023-05-29T07:46:58;100613.20;;;24.30
68127;BMP180;54931;52.098;21.006;2023-05-29T07:49:25;100609.80;;;24.48
68127;BMP180;54931;52.098;21.006;2023-05-29T07:51:52;100609.60;;;24.60
68127;BMP180;54931;52.098;21.006;2023-05-29T07:54:21;100607.80;;;24.50
68127;BMP180;54931;52.098;21.006;2023-05-29T07:56:49;100603.00;;;24.46
68127;BMP180;54931;52.098;21.006;2023-05-29T07:59:17;100605.20;;;24.50
68127;BMP180;54931;52.098;21.006;2023-05-29T08:01:45;100610.00;;;24.60
68127;BMP180;54931;52.098;21.006;2023-05-29T08:04:13;100609.60;;;24.70
68127;BMP180;54931;52.098;21.006;2023-05-29T08:06:40;100613.40;;;24.80
68127;BMP180;54931;52.098;21.006;2023-05-29T08:09:10;100610.40;;;24.90
68127;BMP180;54931;52.098;21.006;2023-05-29T08:11:37;100610.40;;;25.00
68127;BMP180;54931;52.098;21.006;2023-05-29T08:14:05;100611.00;;;25.10
68127;BMP180;54931;52.098;21.006;2023-05-29T08:16:32;100612.60;;;25.10
68127;BMP180;54931;52.098;21.006;2023-05-29T08:19:00;100611.00;;;24.76
68127;BMP180;54931;52.098;21.006;2023-05-29T08:21:27;100610.80;;;24.60
68127;BMP180;54931;52.098;21.006;2023-05-29T08:23:55;100611.60;;;24.90
68127;BMP180;54931;52.098;21.006;2023-05-29T08:26:22;100609.00;;;25.00
68127;BMP180;54931;52.098;21.006;2023-05-29T08:28:49;100609.00;;;25.00
68127;BMP180;54931;52.098;21.006;2023-05-29T08:31:17;100610.80;;;25.06
68127;BMP180;54931;52.098;21.006;2023-05-29T08:33:44;100616.60;;;25.10
68127;BMP180;54931;52.098;21.006;2023-05-29T08:36:12;100614.80;;;25.10
68127;BMP180;54931;52.098;21.006;2023-05-29T08:38:39;100617.80;;;24.80
68127;BMP180;54931;52.098;21.006;2023-05-29T08:41:07;100619.20;;;24.80
68127;BMP180;54931;52.098;21.006;2023-05-29T08:43:34;100618.60;;;25.16
68127;BMP180;54931;52.098;21.006;2023-05-29T08:46:03;100617.20;;;25.52
68127;BMP180;54931;52.098;21.006;2023-05-29T08:48:30;100621.00;;;25.56
68127;BMP180;54931;52.098;21.006;2023-05-29T08:51:02;100620.20;;;25.68
68127;BMP180;54931;52.098;21.006;2023-05-29T08:53:30;100623.20;;;25.88
68127;BMP180;54931;52.098;21.006;2023-05-29T08:55:59;100623.00;;;26.00
68127;BMP180;54931;52.098;21.006;2023-05-29T08:58:27;100624.00;;;26.20
68127;BMP180;54931;52.098;21.006;2023-05-29T09:00:54;100618.60;;;26.30
68127;BMP180;54931;52.098;21.006;2023-05-29T09:03:22;100614.80;;;26.40
68127;BMP180;54931;52.098;21.006;2023-05-29T09:05:50;100614.20;;;26.54
68127;BMP180;54931;52.098;21.006;2023-05-29T09:08:17;100609.20;;;26.40
68127;BMP180;54931;52.098;21.006;2023-05-29T09:10:45;100613.40;;;26.30
68127;BMP180;54931;52.098;21.006;2023-05-29T09:13:13;100613.40;;;26.20
68127;BMP180;54931;52.098;21.006;2023-05-29T09:15:41;100610.20;;;26.10
68127;BMP180;54931;52.098;21.006;2023-05-29T09:18:10;100606.60;;;26.00
68127;BMP180;54931;52.098;21.006;2023-05-29T09:20:37;100605.40;;;26.00
68127;BMP180;54931;52.098;21.006;2023-05-29T09:23:07;100607.20;;;25.90
68127;BMP180;54931;52.098;21.006;2023-05-29T09:25:40;100605.60;;;26.02
68127;BMP180;54931;52.098;21.006;2023-05-29T09:28:08;100605.00;;;26.24
68127;BMP180;54931;52.098;21.006;2023-05-29T09:30:43;100607.20;;;26.30
68127;BMP180;54931;52.098;21.006;2023-05-29T09:33:12;100606.20;;;26.40
68127;BMP180;54931;52.098;21.006;2023-05-29T09:35:41;100604.20;;;26.50
68127;BMP180;54931;52.098;21.006;2023-05-29T09:38:11;100603.00;;;26.50
68127;BMP180;54931;52.098;21.006;2023-05-29T09:40:40;100603.80;;;26.60
68127;BMP180;54931;52.098;21.006;2023-05-29T09:43:15;100598.40;;;26.60
68127;BMP180;54931;52.098;21.006;2023-05-29T09:45:48;100604.20;;;26.70
68127;BMP180;54931;52.098;21.006;2023-05-29T09:48:23;100597.60;;;26.50
68127;BMP180;54931;52.098;21.006;2023-05-29T09:50:50;100596.60;;;26.28
68127;BMP180;54931;52.098;21.006;2023-05-29T09:53:19;100598.40;;;26.20
68127;BMP180;54931;52.098;21.006;2023-05-29T09:55:48;100599.40;;;26.30
68127;BMP180;54931;52.098;21.006;2023-05-29T09:58:17;100601.00;;;26.36
68127;BMP180;54931;52.098;21.006;2023-05-29T10:00:45;100599.20;;;26.36
68127;BMP180;54931;52.098;21.006;2023-05-29T10:03:15;100600.40;;;26.30
68127;BMP180;54931;52.098;21.006;2023-05-29T10:05:49;100597.40;;;26.34
68127;BMP180;54931;52.098;21.006;2023-05-29T10:08:18;100600.80;;;26.40
68127;BMP180;54931;52.098;21.006;2023-05-29T10:10:52;100599.80;;;26.30
68127;BMP180;54931;52.098;21.006;2023-05-29T10:13:22;100597.00;;;26.40
68127;BMP180;54931;52.098;21.006;2023-05-29T10:15:52;100598.60;;;26.20
68127;BMP180;54931;52.098;21.006;2023-05-29T10:18:32;100595.40;;;26.10
68127;BMP180;54931;52.098;21.006;2023-05-29T10:21:02;100587.40;;;26.20
68127;BMP180;54931;52.098;21.006;2023-05-29T10:23:31;100593.80;;;26.26
68127;BMP180;54931;52.098;21.006;2023-05-29T10:28:40;100594.40;;;26.12
68127;BMP180;54931;52.098;21.006;2023-05-29T10:31:09;100588.60;;;26.00
68127;BMP180;54931;52.098;21.006;2023-05-29T10:36:25;100590.20;;;25.90
68127;BMP180;54931;52.098;21.006;2023-05-29T10:38:57;100583.40;;;25.90
68127;BMP180;54931;52.098;21.006;2023-05-29T10:43:56;100581.00;;;25.68
68127;BMP180;54931;52.098;21.006;2023-05-29T10:49:19;100581.40;;;25.70
68127;BMP180;54931;52.098;21.006;2023-05-29T10:51:47;100580.40;;;25.50
68127;BMP180;54931;52.098;21.006;2023-05-29T10:54:15;100577.20;;;25.50
68127;BMP180;54931;52.098;21.006;2023-05-29T10:56:58;100573.60;;;25.30
68127;BMP180;54931;52.098;21.006;2023-05-29T10:59:26;100569.60;;;24.86
68127;BMP180;54931;52.098;21.006;2023-05-29T11:01:55;100567.20;;;24.76
68127;BMP180;54931;52.098;21.006;2023-05-29T11:06:53;100560.40;;;25.00
68127;BMP180;54931;52.098;21.006;2023-05-29T11:09:38;100557.40;;;25.20
68127;BMP180;54931;52.098;21.006;2023-05-29T11:12:22;100556.60;;;25.40
68127;BMP180;54931;52.098;21.006;2023-05-29T11:15:07;100553.80;;;25.30
68127;BMP180;54931;52.098;21.006;2023-05-29T11:23:01;100548.80;;;25.10
68127;BMP180;54931;52.098;21.006;2023-05-29T11:25:33;100547.20;;;25.02
68127;BMP180;54931;52.098;21.006;2023-05-29T11:28:01;100545.60;;;24.90
68127;BMP180;54931;52.098;21.006;2023-05-29T11:30:31;100540.60;;;24.80
68127;BMP180;54931;52.098;21.006;2023-05-29T11:33:07;100549.40;;;24.56
68127;BMP180;54931;52.098;21.006;2023-05-29T11:35:38;100543.00;;;24.50
68127;BMP180;54931;52.098;21.006;2023-05-29T11:38:05;100546.60;;;24.50
68127;BMP180;54931;52.098;21.006;2023-05-29T11:40:36;100546.40;;;24.50
68127;BMP180;54931;52.098;21.006;2023-05-29T11:43:05;100548.20;;;24.30
68127;BMP180;54931;52.098;21.006;2023-05-29T11:45:33;100550.00;;;24.20
68127;BMP180;54931;52.098;21.006;2023-05-29T11:48:03;100550.80;;;24.10
68127;BMP180;54931;52.098;21.006;2023-05-29T11:50:32;100542.60;;;23.92
68127;BMP180;54931;52.098;21.006;2023-05-29T11:53:00;100542.00;;;24.10
68127;BMP180;54931;52.098;21.006;2023-05-29T11:55:28;100542.80;;;24.30
68127;BMP180;54931;52.098;21.006;2023-05-29T11:57:57;100534.20;;;24.46
68127;BMP180;54931;52.098;21.006;2023-05-29T12:00:30;100537.80;;;24.50
68127;BMP180;54931;52.098;21.006;2023-05-29T12:02:59;100534.20;;;24.30
68127;BMP180;54931;52.098;21.006;2023-05-29T12:05:32;100543.60;;;24.30
68127;BMP180;54931;52.098;21.006;2023-05-29T12:08:00;100537.60;;;24.50
68127;BMP180;54931;52.098;21.006;2023-05-29T12:10:31;100532.00;;;24.70
68127;BMP180;54931;52.098;21.006;2023-05-29T12:13:00;100531.00;;;24.80
68127;BMP180;54931;52.098;21.006;2023-05-29T12:15:30;100529.60;;;24.90
68127;BMP180;54931;52.098;21.006;2023-05-29T12:17:58;100527.00;;;24.90
68127;BMP180;54931;52.098;21.006;2023-05-29T12:20:25;100525.60;;;24.80
68127;BMP180;54931;52.098;21.006;2023-05-29T12:23:00;100523.80;;;24.90
68127;BMP180;54931;52.098;21.006;2023-05-29T12:25:29;100517.80;;;24.80
68127;BMP180;54931;52.098;21.006;2023-05-29T12:27:56;100517.40;;;24.80
68127;BMP180;54931;52.098;21.006;2023-05-29T12:30:25;100519.00;;;25.00
68127;BMP180;54931;52.098;21.006;2023-05-29T12:32:53;100517.20;;;25.20
68127;BMP180;54931;52.098;21.006;2023-05-29T12:35:23;100515.60;;;25.22
68127;BMP180;54931;52.098;21.006;2023-05-29T12:37:57;100512.80;;;25.40
68127;BMP180;54931;52.098;21.006;2023-05-29T12:40:26;100511.00;;;25.30
68127;BMP180;54931;52.098;21.006;2023-05-29T12:42:58;100512.60;;;25.38
68127;BMP180;54931;52.098;21.006;2023-05-29T12:45:28;100507.00;;;25.36
68127;BMP180;54931;52.098;21.006;2023-05-29T12:48:00;100505.40;;;25.50
68127;BMP180;54931;52.098;21.006;2023-05-29T12:50:35;100500.80;;;25.40
68127;BMP180;54931;52.098;21.006;2023-05-29T12:53:06;100501.80;;;25.30
68127;BMP180;54931;52.098;21.006;2023-05-29T12:55:35;100497.40;;;25.20
68127;BMP180;54931;52.098;21.006;2023-05-29T12:58:08;100500.40;;;25.06
68127;BMP180;54931;52.098;21.006;2023-05-29T13:00:40;100491.20;;;25.00
68127;BMP180;54931;52.098;21.006;2023-05-29T13:03:09;100494.20;;;24.84
68127;BMP180;54931;52.098;21.006;2023-05-29T13:05:38;100493.60;;;24.90
68127;BMP180;54931;52.098;21.006;2023-05-29T13:08:06;100490.60;;;24.70
68127;BMP180;54931;52.098;21.006;2023-05-29T13:10:35;100484.00;;;24.60
68127;BMP180;54931;52.098;21.006;2023-05-29T13:13:03;100482.20;;;24.60
68127;BMP180;54931;52.098;21.006;2023-05-29T13:15:31;100478.60;;;24.70
68127;BMP180;54931;52.098;21.006;2023-05-29T13:17:59;100476.20;;;24.80
68127;BMP180;54931;52.098;21.006;2023-05-29T13:20:27;100477.20;;;24.80
68127;BMP180;54931;52.098;21.006;2023-05-29T13:22:55;100479.20;;;25.00
68127;BMP180;54931;52.098;21.006;2023-05-29T13:25:23;100475.20;;;25.10
68127;BMP180;54931;52.098;21.006;2023-05-29T13:27:52;100472.20;;;25.10
68127;BMP180;54931;52.098;21.006;2023-05-29T13:30:21;100470.00;;;25.00
68127;BMP180;54931;52.098;21.006;2023-05-29T13:32:50;100466.80;;;24.90
68127;BMP180;54931;52.098;21.006;2023-05-29T13:35:19;100466.40;;;24.82
68127;BMP180;54931;52.098;21.006;2023-05-29T13:37:46;100461.00;;;25.00
68127;BMP180;54931;52.098;21.006;2023-05-29T13:40:14;100460.80;;;25.20
68127;BMP180;54931;52.098;21.006;2023-05-29T13:42:42;100459.40;;;25.40
68127;BMP180;54931;52.098;21.006;2023-05-29T13:45:09;100457.80;;;25.20
68127;BMP180;54931;52.098;21.006;2023-05-29T13:47:38;100456.40;;;25.26
68127;BMP180;54931;52.098;21.006;2023-05-29T13:50:07;100454.80;;;25.30
68127;BMP180;54931;52.098;21.006;2023-05-29T13:52:35;100458.00;;;25.26
68127;BMP180;54931;52.098;21.006;2023-05-29T13:55:03;100459.00;;;25.10
68127;BMP180;54931;52.098;21.006;2023-05-29T13:57:35;100457.00;;;25.10
68127;BMP180;54931;52.098;21.006;2023-05-29T14:00:05;100457.80;;;25.10
68127;BMP180;54931;52.098;21.006;2023-05-29T14:02:35;100455.20;;;25.20
68127;BMP180;54931;52.098;21.006;2023-05-29T14:05:03;100447.40;;;25.20
68127;BMP180;54931;52.098;21.006;2023-05-29T14:07:30;100455.00;;;25.38
68127;BMP180;54931;52.098;21.006;2023-05-29T14:09:58;100452.00;;;25.38
68127;BMP180;54931;52.098;21.006;2023-05-29T14:12:25;100455.20;;;24.98
68127;BMP180;54931;52.098;21.006;2023-05-29T14:14:54;100454.20;;;24.54
68127;BMP180;54931;52.098;21.006;2023-05-29T14:17:21;100456.80;;;24.30
68127;BMP180;54931;52.098;21.006;2023-05-29T14:19:48;100457.60;;;24.10
68127;BMP180;54931;52.098;21.006;2023-05-29T14:22:16;100447.80;;;23.80